createdAt,value
2019-05-10T00:00:17.019Z,93881.23
2019-05-10T00:03:05.476Z,93882.02
2019-05-10T00:05:54.737Z,93879.14
2019-05-10T00:08:43.191Z,93888.04
2019-05-10T00:11:33.734Z,93886.48
2019-05-10T00:14:20.780Z,93890.42
2019-05-10T00:16:53.717Z,93882.30
2019-05-10T00:19:24.007Z,93869.49
2019-05-10T00:21:55.427Z,93879.11
2019-05-10T00:24:25.917Z,93886.52
2019-05-10T00:26:56.279Z,93865.80
2019-05-10T00:29:26.712Z,93858.52
2019-05-10T00:31:57.018Z,93875.09
2019-05-10T00:34:27.501Z,93867.38
2019-05-10T00:36:58.187Z,93875.05
2019-05-10T00:39:28.554Z,93864.96
2019-05-10T00:41:58.862Z,93877.54
2019-05-10T00:44:29.405Z,93867.11
2019-05-10T00:47:00.009Z,93869.72
2019-05-10T00:49:30.336Z,93873.16
2019-05-10T00:52:02.335Z,93881.77
2019-05-10T00:54:32.762Z,93884.10
2019-05-10T00:57:04.038Z,93878.59
2019-05-10T00:59:34.473Z,93873.13
2019-05-10T01:02:05.044Z,93878.63
2019-05-10T01:04:35.455Z,93878.09
2019-05-10T01:07:05.990Z,93862.19
2019-05-10T01:09:36.652Z,93872.89
2019-05-10T01:12:07.061Z,93884.35
2019-05-10T01:14:37.364Z,93884.64
2019-05-10T01:17:08.196Z,93883.05
2019-05-10T01:19:38.600Z,93889.85
2019-05-10T01:22:08.947Z,93878.10
2019-05-10T01:24:39.734Z,93874.70
2019-05-10T01:27:10.278Z,93885.55
2019-05-10T01:29:40.703Z,93898.64
2019-05-10T01:32:11.017Z,93893.61
2019-05-10T01:34:41.397Z,93903.75
2019-05-10T01:37:12.025Z,93892.40
2019-05-10T01:39:42.436Z,93894.22
2019-05-10T01:42:12.745Z,93898.59
2019-05-10T01:44:43.344Z,93891.56
2019-05-10T01:47:13.901Z,93894.46
2019-05-10T01:49:44.243Z,93895.31
2019-05-10T01:52:15.106Z,93900.02
2019-05-10T01:54:45.489Z,93901.58
2019-05-10T01:57:15.819Z,93900.00
2019-05-10T01:59:47.216Z,93898.21
2019-05-10T02:02:17.542Z,93905.77
2019-05-10T02:04:48.213Z,93914.67
2019-05-10T02:07:18.794Z,93913.84
2019-05-10T02:09:49.080Z,93901.83
2019-05-10T02:12:19.852Z,93910.73
2019-05-10T02:14:50.496Z,93910.48
2019-05-10T02:17:20.838Z,93913.11
2019-05-10T02:19:51.641Z,93911.26
2019-05-10T02:22:23.985Z,93896.66
2019-05-10T02:24:54.311Z,93900.78
2019-05-10T02:27:24.703Z,93909.06
2019-05-10T02:29:55.096Z,93906.40
2019-05-10T02:32:25.629Z,93909.06
2019-05-10T02:34:56.278Z,93909.37
2019-05-10T02:37:26.638Z,93904.96
2019-05-10T02:39:57.490Z,93913.06
2019-05-10T02:42:28.367Z,93912.80
2019-05-10T02:44:58.678Z,93897.69
2019-05-10T02:47:29.225Z,93911.76
2019-05-10T02:50:00.018Z,93903.78
2019-05-10T02:52:30.818Z,93908.05
2019-05-10T02:55:01.311Z,93908.35
2019-05-10T02:57:31.971Z,93913.67
2019-05-10T03:00:03.801Z,93914.84
2019-05-10T03:02:35.339Z,93922.16
2019-05-10T03:05:06.678Z,93920.98
2019-05-10T03:07:39.098Z,93917.63
2019-05-10T03:10:11.317Z,93928.64
2019-05-10T03:12:42.390Z,93927.65
2019-05-10T03:15:13.617Z,93927.64
2019-05-10T03:17:44.383Z,93936.70
2019-05-10T03:20:14.906Z,93929.18
2019-05-10T03:22:45.531Z,93938.03
2019-05-10T03:25:16.024Z,93931.92
2019-05-10T03:27:47.369Z,93937.44
2019-05-10T03:30:17.817Z,93932.60
2019-05-10T03:32:48.591Z,93927.36
2019-05-10T03:35:19.183Z,93922.95
2019-05-10T03:37:50.004Z,93930.92
2019-05-10T03:40:20.417Z,93932.14
2019-05-10T03:42:51.356Z,93925.89
2019-05-10T03:45:22.226Z,93925.87
2019-05-10T03:47:52.795Z,93932.05
2019-05-10T03:50:23.212Z,93935.28
2019-05-10T03:52:53.901Z,93937.78
2019-05-10T03:55:24.310Z,93934.66
2019-05-10T03:57:54.602Z,93937.02
2019-05-10T04:00:25.344Z,93934.16
2019-05-10T04:02:56.127Z,93937.85
2019-05-10T04:05:26.450Z,93945.58
2019-05-10T04:07:56.888Z,93941.55
2019-05-10T04:10:27.235Z,93948.11
2019-05-10T04:12:57.909Z,93962.72
2019-05-10T04:15:28.623Z,93977.52
2019-05-10T04:17:58.975Z,93985.20
2019-05-10T04:20:29.687Z,93971.87
2019-05-10T04:23:00.131Z,93974.48
2019-05-10T04:25:30.423Z,93976.84
2019-05-10T04:28:00.964Z,93988.26
2019-05-10T04:30:31.996Z,93985.66
2019-05-10T04:33:02.308Z,93991.70
2019-05-10T04:35:32.758Z,93996.16
2019-05-10T04:38:03.438Z,94007.16
2019-05-10T04:40:33.781Z,94033.84
2019-05-10T04:43:04.609Z,94049.98
2019-05-10T04:45:34.951Z,94035.81
2019-05-10T04:48:05.581Z,94042.44
2019-05-10T04:50:36.413Z,94049.35
2019-05-10T04:53:06.709Z,94054.57
2019-05-10T04:55:37.352Z,94051.24
2019-05-10T04:58:07.782Z,94045.84
2019-05-10T05:00:38.080Z,94060.54
2019-05-10T05:03:08.567Z,94076.34
2019-05-10T05:05:39.283Z,94085.73
2019-05-10T05:08:09.802Z,94082.48
2019-05-10T05:10:40.121Z,94072.59
2019-05-10T05:13:10.942Z,94072.06
2019-05-10T05:15:41.539Z,94082.39
2019-05-10T05:18:12.897Z,94078.64
2019-05-10T05:20:43.690Z,94073.23
2019-05-10T05:23:14.097Z,94080.84
2019-05-10T05:25:44.475Z,94081.72
2019-05-10T05:28:18.363Z,94084.67
2019-05-10T05:30:47.120Z,94075.24
2019-05-10T05:33:17.407Z,94077.10
2019-05-10T05:35:47.811Z,94079.16
2019-05-10T05:38:18.508Z,94074.11
2019-05-10T05:40:48.803Z,94074.50
2019-05-10T05:43:19.256Z,94064.78
2019-05-10T05:45:49.966Z,94080.50
2019-05-10T05:48:21.526Z,94081.53
2019-05-10T05:50:52.817Z,94087.73
2019-05-10T05:53:23.179Z,94100.53
2019-05-10T05:55:53.435Z,94107.67
2019-05-10T05:58:27.519Z,94101.30
2019-05-10T06:00:55.997Z,94100.87
2019-05-10T06:03:29.201Z,94112.91
2019-05-10T06:05:58.604Z,94107.44
2019-05-10T06:08:30.272Z,94105.89
2019-05-10T06:11:00.643Z,94110.19
2019-05-10T06:13:32.564Z,94115.20
2019-05-10T06:16:06.227Z,94115.64
2019-05-10T06:18:35.534Z,94109.25
2019-05-10T06:21:05.891Z,94115.72
2019-05-10T06:23:36.923Z,94113.36
2019-05-10T06:26:08.089Z,94114.95
2019-05-10T06:28:57.880Z,94110.94
2019-05-10T06:31:11.883Z,94108.59
2019-05-10T06:33:45.147Z,94110.17
2019-05-10T06:36:15.097Z,94110.34
2019-05-10T06:38:45.484Z,94114.88
2019-05-10T06:41:17.427Z,94103.39
2019-05-10T06:43:51.176Z,94115.19
2019-05-10T06:46:23.740Z,94111.25
2019-05-10T06:48:52.996Z,94120.32
2019-05-10T06:51:23.291Z,94114.63
2019-05-10T06:53:54.072Z,94106.77
2019-05-10T06:56:24.438Z,94122.00
2019-05-10T06:58:54.996Z,94119.20
2019-05-10T07:01:25.625Z,94137.14
2019-05-10T07:03:56.338Z,94133.23
2019-05-10T07:06:26.648Z,94135.28
2019-05-10T07:08:58.370Z,94122.75
2019-05-10T07:11:29.531Z,94141.27
2019-05-10T07:13:59.880Z,94134.37
2019-05-10T07:16:30.208Z,94140.47
2019-05-10T07:19:02.276Z,94136.28
2019-05-10T07:21:32.687Z,94142.55
2019-05-10T07:24:02.965Z,94132.87
2019-05-10T07:26:33.376Z,94141.80
2019-05-10T07:29:03.851Z,94140.30
2019-05-10T07:31:34.601Z,94146.31
2019-05-10T07:34:09.768Z,94140.53
2019-05-10T07:36:37.674Z,94138.45
2019-05-10T07:39:08.880Z,94137.68
2019-05-10T07:41:40.540Z,94137.41
2019-05-10T07:44:11.187Z,94144.73
2019-05-10T07:46:46.412Z,94152.03
2019-05-10T07:49:13.717Z,94148.64
2019-05-10T07:51:44.483Z,94160.67
2019-05-10T07:54:14.785Z,94162.53
2019-05-10T07:56:47.824Z,94156.48
2019-05-10T07:59:22.033Z,94163.51
2019-05-10T08:01:50.016Z,94169.27
2019-05-10T08:04:28.829Z,94174.86
2019-05-10T08:06:52.574Z,94175.23
2019-05-10T08:09:23.093Z,94177.98
2019-05-10T08:11:59.536Z,94198.70
2019-05-10T08:14:26.077Z,94196.09
2019-05-10T08:17:05.687Z,94184.22
2019-05-10T08:19:32.919Z,94193.66
2019-05-10T08:22:04.517Z,94170.53
2019-05-10T08:24:35.519Z,94179.52
2019-05-10T08:27:11.580Z,94200.18
2019-05-10T08:29:38.226Z,94186.30
2019-05-10T08:32:12.658Z,94198.63
2019-05-10T08:34:51.712Z,94179.27
2019-05-10T08:37:19.392Z,94198.63
2019-05-10T08:39:49.451Z,94168.80
2019-05-10T08:42:34.276Z,94207.73
2019-05-10T08:45:02.857Z,94198.59
2019-05-10T08:47:27.453Z,94195.73
2019-05-10T08:50:09.355Z,94185.69
2019-05-10T08:52:31.791Z,94189.67
2019-05-10T08:55:02.528Z,94211.95
2019-05-10T08:57:34.896Z,94219.20
2019-05-10T09:00:08.909Z,94209.20
2019-05-10T09:02:39.172Z,94224.69
2019-05-10T09:05:12.253Z,94216.66
2019-05-10T09:07:44.971Z,94232.63
2019-05-10T09:10:14.441Z,94227.16
2019-05-10T09:12:51.102Z,94217.74
2019-05-10T09:15:17.221Z,94223.51
2019-05-10T09:17:47.656Z,94219.30
2019-05-10T09:20:21.800Z,94203.61
2019-05-10T09:22:52.832Z,94218.20
2019-05-10T09:25:29.214Z,94218.48
2019-05-10T09:27:55.361Z,94214.66
2019-05-10T09:30:35.407Z,94215.05
2019-05-10T09:33:11.415Z,94208.98
2019-05-10T09:35:38.854Z,94217.20
2019-05-10T09:38:12.465Z,94211.14
2019-05-10T09:40:51.558Z,94215.87
2019-05-10T09:43:15.132Z,94219.55
2019-05-10T09:45:45.590Z,94218.22
2019-05-10T09:48:16.563Z,94202.90
2019-05-10T09:50:48.173Z,94205.80
2019-05-10T09:53:25.365Z,94218.38
2019-05-10T09:56:00.079Z,94215.63
2019-05-10T09:58:24.262Z,94213.94
2019-05-10T10:01:09.403Z,94218.63
2019-05-10T10:03:29.621Z,94215.05
2019-05-10T10:06:05.649Z,94206.91
2019-05-10T10:08:31.130Z,94211.19
2019-05-10T10:11:13.529Z,94204.11
2019-05-10T10:13:43.082Z,94238.77
2019-05-10T10:16:12.620Z,94205.13
2019-05-10T10:18:39.045Z,94205.39
2019-05-10T10:21:10.326Z,94223.14
2019-05-10T10:23:41.608Z,94218.88
2019-05-10T10:26:12.713Z,94224.20
2019-05-10T10:28:44.175Z,94218.48
2019-05-10T10:31:27.000Z,94220.58
2019-05-10T10:33:54.591Z,94225.59
2019-05-10T10:36:19.145Z,94222.19
2019-05-10T10:38:50.811Z,94225.64
2019-05-10T10:41:26.062Z,94223.11
2019-05-10T10:43:53.471Z,94228.90
2019-05-10T10:46:24.225Z,94224.17
2019-05-10T10:48:54.833Z,94227.31
2019-05-10T10:51:26.567Z,94248.25
2019-05-10T10:53:58.305Z,94221.10
2019-05-10T10:56:28.687Z,94238.97
2019-05-10T10:58:59.221Z,94240.47
2019-05-10T11:01:45.957Z,94258.80
2019-05-10T11:04:07.700Z,94263.88
2019-05-10T11:06:35.091Z,94256.14
2019-05-10T11:09:07.605Z,94253.98
2019-05-10T11:11:39.157Z,94248.13
2019-05-10T11:14:11.509Z,94253.72
2019-05-10T11:16:46.693Z,94249.72
2019-05-10T11:19:15.763Z,94242.83
2019-05-10T11:21:46.370Z,94232.23
2019-05-10T11:24:18.591Z,94251.67
2019-05-10T11:26:48.813Z,94250.14
2019-05-10T11:29:27.681Z,94246.31
2019-05-10T11:32:11.214Z,94240.98
2019-05-10T11:34:23.804Z,94248.14
2019-05-10T11:36:56.265Z,94249.83
2019-05-10T11:39:27.027Z,94257.56
2019-05-10T11:42:02.367Z,94248.86
2019-05-10T11:44:31.528Z,94252.45
2019-05-10T11:47:01.714Z,94241.03
2019-05-10T11:49:32.323Z,94306.70
2019-05-10T11:52:03.628Z,94257.75
2019-05-10T11:54:34.042Z,94242.22
2019-05-10T12:04:43.417Z,94241.92
2019-05-10T12:07:13.942Z,94256.31
2019-05-10T12:09:44.426Z,94247.13
2019-05-10T12:12:14.900Z,94270.77
2019-05-10T12:14:46.687Z,94259.41
2019-05-10T12:17:17.237Z,94272.36
2019-05-10T12:19:54.915Z,94252.28
2019-05-10T12:22:21.655Z,94242.39
2019-05-10T12:25:16.990Z,94269.34
2019-05-10T12:26:00.231Z,94197.38
2019-05-10T12:26:04.912Z,94240.99
2019-05-10T12:26:27.297Z,94251.69
2019-05-10T12:27:29.210Z,94251.58
2019-05-10T12:30:02.658Z,94243.19
2019-05-10T12:32:33.522Z,94250.87
2019-05-10T12:35:01.442Z,94246.66
2019-05-10T12:37:32.954Z,94249.00
2019-05-10T12:40:09.919Z,94242.66
2019-05-10T12:42:35.812Z,94248.15
2019-05-10T12:45:06.615Z,94246.63
2019-05-10T12:47:37.384Z,94244.34
2019-05-10T12:50:08.285Z,94266.22
2019-05-10T12:52:38.649Z,94237.97
2019-05-10T12:55:09.496Z,94236.97
2019-05-10T12:57:43.256Z,94234.19
2019-05-10T13:00:15.678Z,94241.88
2019-05-10T13:02:50.491Z,94236.31
2019-05-10T13:05:16.672Z,94227.21
2019-05-10T13:07:47.030Z,94233.67
2019-05-10T13:10:17.967Z,94245.92
2019-05-10T13:12:48.812Z,94252.39
2019-05-10T13:15:24.961Z,94243.41
2019-05-10T13:17:53.273Z,94253.73
2019-05-10T13:20:23.841Z,94246.85
2019-05-10T13:22:54.457Z,94250.09
2019-05-10T13:25:25.814Z,94274.17
2019-05-10T13:27:56.189Z,94247.98
2019-05-10T13:30:28.090Z,94254.12
2019-05-10T13:33:00.367Z,94265.75
2019-05-10T13:35:30.732Z,94260.71
2019-05-10T13:38:04.120Z,94263.13
2019-05-10T13:40:39.000Z,94264.78
2019-05-10T13:43:05.810Z,94255.05
2019-05-10T13:45:37.589Z,94261.04
2019-05-10T13:48:08.729Z,94282.19
2019-05-10T13:50:39.025Z,94265.96
2019-05-10T13:53:19.760Z,94265.99
2019-05-10T13:55:42.516Z,94242.71
2019-05-10T13:58:12.827Z,94273.08
2019-05-10T14:00:43.277Z,94268.87
2019-05-10T14:03:14.077Z,94267.44
2019-05-10T14:05:44.390Z,94272.77
2019-05-10T14:08:14.681Z,94281.16
2019-05-10T14:10:49.062Z,94265.53
2019-05-10T14:13:17.567Z,94273.41
2019-05-10T14:15:47.921Z,94272.74
2019-05-10T14:18:18.454Z,94277.03
2019-05-10T14:20:48.873Z,94273.22
2019-05-10T14:23:19.286Z,94265.09
2019-05-10T14:25:49.612Z,94259.10
2019-05-10T14:28:19.933Z,94269.29
2019-05-10T14:30:57.205Z,94262.02
2019-05-10T14:33:23.741Z,94266.39
2019-05-10T14:35:55.318Z,94266.39
2019-05-10T14:38:26.719Z,94270.97
2019-05-10T14:40:57.482Z,94258.28
2019-05-10T14:43:27.806Z,94266.70
2019-05-10T14:45:58.531Z,94269.19
2019-05-10T14:48:30.696Z,94260.95
2019-05-10T14:51:03.043Z,94260.95
2019-05-10T14:53:32.971Z,94271.23
2019-05-10T14:56:07.943Z,94275.19
2019-05-10T14:58:36.112Z,94265.73
2019-05-10T15:01:06.914Z,94268.91
2019-05-10T15:03:45.164Z,94276.41
2019-05-10T15:06:09.792Z,94278.16
2019-05-10T15:08:40.420Z,94270.95
2019-05-10T15:11:10.743Z,94277.98
2019-05-10T15:13:41.331Z,94282.95
2019-05-10T15:16:18.556Z,94267.80
2019-05-10T15:18:44.269Z,94265.45
2019-05-10T15:21:14.619Z,94265.94
2019-05-10T15:23:46.380Z,94266.48
2019-05-10T15:26:16.770Z,94057.14
2019-05-10T15:28:47.517Z,94266.74
2019-05-10T15:31:17.849Z,94261.66
2019-05-10T15:33:48.338Z,94262.27
2019-05-10T15:36:23.602Z,94257.81
2019-05-10T15:38:52.296Z,94259.20
2019-05-10T15:41:24.001Z,94254.34
2019-05-10T15:43:54.970Z,94267.00
2019-05-10T15:46:36.481Z,94261.48
2019-05-10T15:48:57.599Z,94260.27
2019-05-10T15:51:36.300Z,94259.03
2019-05-10T15:54:04.978Z,94263.53
2019-05-10T15:56:35.728Z,94267.35
2019-05-10T15:59:05.489Z,94266.38
2019-05-10T16:01:36.189Z,94263.55
2019-05-10T16:04:06.894Z,94263.34
2019-05-10T16:06:37.882Z,94263.62
2019-05-10T16:09:17.386Z,94269.34
2019-05-10T16:11:42.201Z,94282.42
2019-05-10T16:14:12.689Z,94270.55
2019-05-10T16:16:43.136Z,94275.01
2019-05-10T16:19:18.663Z,94279.06
2019-05-10T16:21:51.356Z,94277.43
2019-05-10T16:24:25.192Z,94271.19
2019-05-10T16:26:54.721Z,94270.32
2019-05-10T16:29:23.066Z,94263.06
2019-05-10T16:31:53.643Z,94273.27
2019-05-10T16:34:26.316Z,94269.13
2019-05-10T16:36:56.148Z,94269.47
2019-05-10T16:39:26.890Z,94269.47
2019-05-10T16:41:57.634Z,94280.08
2019-05-10T16:44:28.893Z,94270.19
2019-05-10T16:46:59.503Z,94279.47
2019-05-10T16:49:30.090Z,94279.18
2019-05-10T16:52:00.409Z,94276.09
2019-05-10T16:54:31.109Z,94284.13
2019-05-10T16:57:01.708Z,94284.80
2019-05-10T16:59:35.059Z,94280.83
2019-05-10T17:02:06.524Z,94284.67
2019-05-10T17:04:37.624Z,94291.63
2019-05-10T17:07:12.802Z,94287.11
2019-05-10T17:09:41.262Z,94306.17
2019-05-10T17:12:11.659Z,94298.80
2019-05-10T17:14:42.146Z,94306.58
2019-05-10T17:17:12.774Z,94295.41
2019-05-10T17:19:43.089Z,94293.39
2019-05-10T17:22:13.478Z,94305.27
2019-05-10T17:24:44.318Z,94304.72
2019-05-10T17:27:14.639Z,94305.86
2019-05-10T17:29:49.807Z,94317.20
2019-05-10T17:32:18.822Z,94320.85
2019-05-10T17:34:49.877Z,94325.91
2019-05-10T17:37:20.759Z,94330.67
2019-05-10T17:39:53.669Z,94329.34
2019-05-10T17:42:23.349Z,94341.00
2019-05-10T17:44:55.293Z,94336.45
2019-05-10T17:47:27.241Z,94336.48
2019-05-10T17:49:57.872Z,94334.45
2019-05-10T17:52:28.750Z,94337.95
2019-05-10T17:54:59.097Z,94337.21
2019-05-10T17:57:29.500Z,94339.02
2019-05-10T18:00:00.196Z,94342.46
2019-05-10T18:02:30.906Z,94342.78
2019-05-10T18:05:06.134Z,94357.23
2019-05-10T18:07:33.714Z,94341.02
2019-05-10T18:10:05.658Z,94342.53
2019-05-10T18:12:36.056Z,94352.48
2019-05-10T18:15:06.487Z,94356.41
2019-05-10T18:17:38.577Z,94348.05
2019-05-10T18:20:09.775Z,94351.70
2019-05-10T18:22:43.090Z,94356.44
2019-05-10T18:25:20.017Z,94364.34
2019-05-10T18:27:45.337Z,94368.06
2019-05-10T18:30:16.095Z,94369.37
2019-05-10T18:32:46.721Z,94375.95
2019-05-10T18:35:18.118Z,94375.94
2019-05-10T18:37:53.418Z,94371.48
2019-05-10T18:40:25.435Z,94378.55
2019-05-10T18:42:57.989Z,94382.74
2019-05-10T18:45:28.595Z,94385.91
2019-05-10T18:47:57.460Z,94391.92
2019-05-10T18:50:27.763Z,94396.89
2019-05-10T18:52:58.227Z,94395.86
2019-05-10T18:55:28.551Z,94402.94
2019-05-10T18:57:58.847Z,94399.80
2019-05-10T19:00:29.582Z,94394.80
2019-05-10T19:03:00.134Z,94397.95
2019-05-10T19:05:31.777Z,94404.00
2019-05-10T19:08:05.309Z,94402.94
2019-05-10T19:10:35.559Z,94410.03
2019-05-10T19:13:06.547Z,94406.36
2019-05-10T19:15:37.095Z,94413.42
2019-05-10T19:18:07.384Z,94409.22
2019-05-10T19:20:38.130Z,94417.08
2019-05-10T19:23:13.126Z,94417.86
2019-05-10T19:25:45.522Z,94420.25
2019-05-10T19:28:12.948Z,94426.01
2019-05-10T19:30:43.730Z,94419.96
2019-05-10T19:33:14.013Z,94419.20
2019-05-10T19:35:45.719Z,94429.15
2019-05-10T19:38:17.374Z,94420.77
2019-05-10T19:40:48.029Z,94423.91
2019-05-10T19:43:21.797Z,94428.63
2019-05-10T19:45:51.222Z,94427.59
2019-05-10T19:48:22.781Z,94428.36
2019-05-10T19:50:53.594Z,94434.38
2019-05-10T19:53:24.063Z,94422.85
2019-05-10T19:55:57.129Z,94428.61
2019-05-10T19:58:32.123Z,94429.41
2019-05-10T20:00:59.234Z,94433.06
2019-05-10T20:03:29.568Z,94426.99
2019-05-10T20:05:59.978Z,94431.45
2019-05-10T20:08:30.250Z,94433.02
2019-05-10T20:11:00.544Z,94426.14
2019-05-10T20:13:31.301Z,94433.45
2019-05-10T20:16:01.745Z,94437.13
2019-05-10T20:18:32.412Z,94433.73
2019-05-10T20:21:02.791Z,94433.80
2019-05-10T20:23:34.258Z,94437.93
2019-05-10T20:26:04.931Z,94441.03
2019-05-10T20:28:35.264Z,94445.72
2019-05-10T20:31:05.584Z,94442.59
2019-05-10T20:33:36.165Z,94441.25
2019-05-10T20:36:06.562Z,94443.59
2019-05-10T20:38:36.862Z,94443.85
2019-05-10T20:41:07.699Z,94454.88
2019-05-10T20:43:38.249Z,94451.76
2019-05-10T20:46:11.235Z,94458.56
2019-05-10T20:48:40.930Z,94461.19
2019-05-10T20:51:11.295Z,94463.50
2019-05-10T20:53:42.147Z,94472.64
2019-05-10T20:56:13.506Z,94469.03
2019-05-10T20:58:43.841Z,94475.02
2019-05-10T21:01:15.664Z,94455.62
2019-05-10T21:03:45.987Z,94471.08
2019-05-10T21:06:16.292Z,94476.02
2019-05-10T21:08:46.693Z,94475.75
2019-05-10T21:11:17.385Z,94471.06
2019-05-10T21:13:47.749Z,94467.85
2019-05-10T21:16:18.443Z,94477.28
2019-05-10T21:18:49.131Z,94482.52
2019-05-10T21:21:19.487Z,94484.70
2019-05-10T21:23:49.974Z,94488.61
2019-05-10T21:26:20.363Z,94497.23
2019-05-10T21:28:50.969Z,94495.69
2019-05-10T21:31:21.618Z,94493.55
2019-05-10T21:33:51.927Z,94494.92
2019-05-10T21:36:24.735Z,94494.16
2019-05-10T21:38:54.467Z,94493.39
2019-05-10T21:41:24.801Z,94494.95
2019-05-10T21:43:55.243Z,94505.39
2019-05-10T21:46:25.858Z,94497.36
2019-05-10T21:48:56.192Z,94500.20
2019-05-10T21:51:26.535Z,94496.80
2019-05-10T21:53:58.130Z,94501.72
2019-05-10T21:56:28.814Z,94502.01
2019-05-10T21:58:59.602Z,94502.48
2019-05-10T22:01:30.264Z,94505.63
2019-05-10T22:04:00.825Z,94510.36
2019-05-10T22:06:31.610Z,94498.06
2019-05-10T22:09:01.961Z,94508.23
2019-05-10T22:11:32.513Z,94504.36
2019-05-10T22:14:04.421Z,94507.40
2019-05-10T22:16:34.721Z,94501.00
2019-05-10T22:19:05.451Z,94507.51
2019-05-10T22:21:36.215Z,94505.25
2019-05-10T22:24:06.935Z,94518.03
2019-05-10T22:26:37.281Z,94510.97
2019-05-10T22:29:09.069Z,94517.34
2019-05-10T22:31:39.655Z,94514.89
2019-05-10T22:34:09.948Z,94508.81
2019-05-10T22:36:40.423Z,94511.58
2019-05-10T22:39:11.157Z,94506.38
2019-05-10T22:41:41.454Z,94509.11
2019-05-10T22:44:12.043Z,94509.38
2019-05-10T22:46:42.804Z,94516.50
2019-05-10T22:49:13.120Z,94519.42
2019-05-10T22:51:43.493Z,94509.69
2019-05-10T22:54:14.026Z,94519.59
2019-05-10T22:56:44.330Z,94524.38
2019-05-10T22:59:15.283Z,94514.67
2019-05-10T23:01:45.569Z,94517.84
2019-05-10T23:04:15.950Z,94515.43
2019-05-10T23:06:47.893Z,94517.15
2019-05-10T23:09:24.603Z,94526.05
2019-05-10T23:11:50.354Z,94523.80
2019-05-10T23:14:21.153Z,94515.84
2019-05-10T23:16:51.630Z,94519.77
2019-05-10T23:19:21.906Z,94518.69
2019-05-10T23:21:52.458Z,94514.53
2019-05-10T23:24:35.998Z,94516.08
2019-05-10T23:27:06.692Z,94518.02
2019-05-10T23:29:38.436Z,94514.61
2019-05-10T23:32:08.762Z,94526.20
2019-05-10T23:34:39.160Z,94511.44
2019-05-10T23:37:09.802Z,94528.83
2019-05-10T23:39:41.461Z,94511.41
2019-05-10T23:42:12.361Z,94518.73
2019-05-10T23:44:43.059Z,94521.14
2019-05-10T23:47:13.940Z,94516.08
2019-05-10T23:49:44.776Z,94514.97
2019-05-10T23:52:15.667Z,94522.17
2019-05-10T23:54:46.258Z,94509.58
2019-05-10T23:57:16.933Z,94521.07
2019-05-10T23:59:47.633Z,94523.92
